createdAt,value
2022-09-25T00:00:45.565Z,98329.50
2022-09-25T00:03:13.602Z,98326.84
2022-09-25T00:05:41.714Z,98332.16
2022-09-25T00:08:09.528Z,98333.13
2022-09-25T00:10:41.805Z,98331.44
2022-09-25T00:13:08.559Z,98323.63
2022-09-25T00:15:35.210Z,98332.28
2022-09-25T00:18:02.013Z,98330.59
2022-09-25T00:20:28.736Z,98333.38
2022-09-25T00:22:55.778Z,98332.44
2022-09-25T00:25:22.518Z,98332.53
2022-09-25T00:27:54.304Z,98328.78
2022-09-25T00:30:21.117Z,98322.66
2022-09-25T00:32:47.669Z,98320.00
2022-09-25T00:35:14.301Z,98315.53
2022-09-25T00:37:40.832Z,98320.84
2022-09-25T00:40:08.193Z,98276.72
2022-09-25T00:42:36.387Z,98312.78
2022-09-25T00:45:24.813Z,98315.44
2022-09-25T00:48:14.792Z,98306.53
2022-09-25T00:50:55.512Z,98308.31
2022-09-25T00:53:27.242Z,98310.00
2022-09-25T00:55:56.442Z,98309.03
2022-09-25T00:58:25.441Z,98300.25
2022-09-25T01:00:53.803Z,98294.25
2022-09-25T01:03:20.912Z,98296.75
2022-09-25T01:05:49.224Z,98297.72
2022-09-25T01:08:19.665Z,98295.06
2022-09-25T01:10:46.616Z,98291.59
2022-09-25T01:13:15.328Z,98296.91
2022-09-25T01:15:52.784Z,98288.94
2022-09-25T01:18:55.618Z,98285.44
2022-09-25T01:21:27.387Z,98278.47
2022-09-25T01:24:15.155Z,98288.09
2022-09-25T01:27:06.672Z,98276.66
2022-09-25T01:30:01.929Z,98273.44
2022-09-25T01:32:42.617Z,98277.91
2022-09-25T01:35:37.615Z,98275.94
2022-09-25T01:38:28.500Z,98275.94
2022-09-25T01:40:58.439Z,98269.94
2022-09-25T01:43:41.973Z,98282.19
2022-09-25T01:46:22.553Z,98278.00
2022-09-25T01:48:55.395Z,98281.38
2022-09-25T01:51:27.631Z,98283.19
2022-09-25T01:53:58.218Z,98282.34
2022-09-25T01:56:32.958Z,98269.72
2022-09-25T01:59:24.206Z,98282.47
2022-09-25T02:01:52.903Z,98281.50
2022-09-25T02:04:35.164Z,98280.66
2022-09-25T02:07:04.156Z,98284.41
2022-09-25T02:09:37.528Z,98275.75
2022-09-25T02:12:14.365Z,98281.06
2022-09-25T02:15:02.172Z,98256.41
2022-09-25T02:18:00.493Z,98270.94
2022-09-25T02:20:33.926Z,98272.88
2022-09-25T02:23:23.582Z,98274.81
2022-09-25T02:26:02.042Z,98264.47
2022-09-25T02:31:02.562Z,98252.94
2022-09-25T02:33:29.829Z,98255.34
2022-09-25T02:35:56.445Z,98268.47
2022-09-25T02:38:23.073Z,98267.63
2022-09-25T02:41:21.277Z,98269.41
2022-09-25T02:44:24.689Z,98266.91
2022-09-25T02:47:13.240Z,98267.88
2022-09-25T02:50:05.618Z,98264.38
2022-09-25T02:52:41.785Z,98262.69
2022-09-25T02:55:51.787Z,98268.81
2022-09-25T02:58:37.092Z,98256.81
2022-09-25T03:01:50.722Z,98260.19
2022-09-25T03:04:19.177Z,98265.59
2022-09-25T03:06:46.261Z,98259.59
2022-09-25T03:09:15.809Z,98259.47
2022-09-25T03:11:43.590Z,98252.34
2022-09-25T03:14:10.513Z,98250.66
2022-09-25T03:16:51.579Z,98251.53
2022-09-25T03:19:21.910Z,98249.00
2022-09-25T03:21:49.005Z,98249.00
2022-09-25T03:24:16.024Z,98247.19
2022-09-25T03:26:43.106Z,98245.38
2022-09-25T03:29:12.746Z,98241.06
2022-09-25T03:31:39.856Z,98242.72
2022-09-25T03:34:06.465Z,98238.41
2022-09-25T03:36:34.864Z,98236.13
2022-09-25T03:39:01.585Z,98236.59
2022-09-25T03:41:31.175Z,98238.28
2022-09-25T03:43:58.505Z,98204.66
2022-09-25T03:46:30.498Z,98229.47
2022-09-25T03:48:57.456Z,98237.44
2022-09-25T03:51:26.021Z,98231.16
2022-09-25T03:53:53.631Z,98233.00
2022-09-25T03:56:24.977Z,98229.47
2022-09-25T03:58:54.280Z,98228.53
2022-09-25T04:01:21.891Z,98225.06
2022-09-25T04:03:49.403Z,98219.75
2022-09-25T04:06:18.384Z,98214.09
2022-09-25T04:08:46.132Z,98231.16
2022-09-25T04:11:12.964Z,98237.44
2022-09-25T04:16:08.357Z,98235.63
2022-09-25T04:18:35.501Z,98240.06
2022-09-25T04:21:06.659Z,98241.06
2022-09-25T04:25:50.988Z,98250.66
2022-09-25T04:28:17.757Z,98237.56
2022-09-25T04:30:44.492Z,98236.59
2022-09-25T04:33:30.051Z,98237.44
2022-09-25T04:35:56.812Z,98234.78
2022-09-25T04:38:23.641Z,98236.47
2022-09-25T04:40:50.271Z,98234.69
2022-09-25T04:43:16.840Z,98230.22
2022-09-25T04:45:43.411Z,98228.53
2022-09-25T04:48:09.977Z,98231.06
2022-09-25T04:50:36.592Z,98234.53
2022-09-25T04:53:03.120Z,98234.53
2022-09-25T04:55:30.168Z,98228.28
2022-09-25T04:57:59.541Z,98229.13
2022-09-25T05:00:28.998Z,98230.81
2022-09-25T05:02:55.795Z,98226.47
2022-09-25T05:05:27.237Z,98223.13
2022-09-25T05:07:54.564Z,98191.06
2022-09-25T05:10:22.488Z,98226.00
2022-09-25T05:12:54.202Z,98231.66
2022-09-25T05:15:21.064Z,98241.38
2022-09-25T05:17:47.724Z,98235.97
2022-09-25T05:20:14.323Z,98240.28
2022-09-25T05:22:40.844Z,98239.34
2022-09-25T05:25:07.928Z,98237.50
2022-09-25T05:27:34.671Z,98228.28
2022-09-25T05:30:01.593Z,98245.47
2022-09-25T05:32:28.185Z,98235.72
2022-09-25T05:34:54.706Z,98245.34
2022-09-25T05:37:21.185Z,98236.44
2022-09-25T05:39:47.837Z,98239.94
2022-09-25T05:42:15.961Z,98246.06
2022-09-25T05:44:42.493Z,98241.63
2022-09-25T05:47:09.014Z,98199.31
2022-09-25T05:49:35.599Z,98241.63
2022-09-25T05:52:02.341Z,98243.31
2022-09-25T05:54:28.871Z,98241.63
2022-09-25T05:56:55.377Z,98249.44
2022-09-25T05:59:21.944Z,98244.97
2022-09-25T06:01:48.552Z,98238.69
2022-09-25T06:04:15.189Z,98241.34
2022-09-25T06:06:41.680Z,98241.34
2022-09-25T06:09:08.276Z,98240.38
2022-09-25T06:11:35.097Z,98238.59
2022-09-25T06:14:02.018Z,98241.25
2022-09-25T06:16:28.677Z,98242.91
2022-09-25T06:18:56.239Z,98241.94
2022-09-25T06:23:36.937Z,98235.81
2022-09-25T06:26:05.916Z,98226.41
2022-09-25T06:28:33.128Z,98238.31
2022-09-25T06:31:01.062Z,98229.28
2022-09-25T06:33:27.827Z,98233.75
2022-09-25T06:35:54.396Z,98235.44
2022-09-25T06:38:21.110Z,98233.63
2022-09-25T06:40:47.711Z,98243.25
2022-09-25T06:43:15.998Z,98240.47
2022-09-25T06:45:43.278Z,98245.75
2022-09-25T06:48:15.665Z,98248.28
2022-09-25T06:50:55.316Z,98232.53
2022-09-25T06:53:23.970Z,98229.16
2022-09-25T06:55:51.038Z,98227.81
2022-09-25T06:58:20.708Z,98227.81
2022-09-25T07:00:52.096Z,98230.31
2022-09-25T07:03:37.686Z,98221.94
2022-09-25T07:06:06.543Z,98227.56
2022-09-25T07:08:33.336Z,98228.41
2022-09-25T07:11:01.534Z,98228.28
2022-09-25T07:13:31.481Z,98225.63
2022-09-25T07:16:00.141Z,98230.78
2022-09-25T07:18:28.537Z,98230.69
2022-09-25T07:21:11.451Z,98232.38
2022-09-25T07:23:39.515Z,98224.41
2022-09-25T07:26:10.766Z,98229.72
2022-09-25T07:28:39.164Z,98229.59
2022-09-25T07:31:19.282Z,98230.41
2022-09-25T07:33:46.893Z,98231.28
2022-09-25T07:36:14.841Z,98232.94
2022-09-25T07:38:42.033Z,98225.63
2022-09-25T07:41:13.512Z,98231.13
2022-09-25T07:43:42.181Z,98233.78
2022-09-25T07:46:08.770Z,98245.09
2022-09-25T07:48:35.700Z,98238.94
2022-09-25T07:51:04.780Z,98236.28
2022-09-25T07:53:31.851Z,98233.66
2022-09-25T07:56:06.073Z,98235.47
2022-09-25T07:58:35.418Z,98246.75
2022-09-25T08:01:04.947Z,98244.09
2022-09-25T08:03:31.623Z,98244.09
2022-09-25T08:06:07.216Z,98239.66
2022-09-25T08:08:34.474Z,98235.19
2022-09-25T08:11:02.853Z,98243.13
2022-09-25T08:13:32.384Z,98243.13
2022-09-25T08:15:59.513Z,98243.13
2022-09-25T08:18:26.136Z,98244.81
2022-09-25T08:20:52.689Z,98245.69
2022-09-25T08:23:20.088Z,98242.31
2022-09-25T08:25:49.679Z,98238.56
2022-09-25T08:28:16.390Z,98235.09
2022-09-25T08:32:58.945Z,98234.09
2022-09-25T08:35:27.998Z,98235.91
2022-09-25T08:37:55.032Z,98237.75
2022-09-25T08:40:30.990Z,98229.78
2022-09-25T08:42:59.031Z,98231.59
2022-09-25T08:45:58.859Z,98225.47
2022-09-25T08:48:51.751Z,98230.63
2022-09-25T08:51:18.746Z,98225.03
2022-09-25T08:53:46.090Z,98207.28
2022-09-25T08:56:20.021Z,98224.59
2022-09-25T08:59:23.687Z,98213.41
2022-09-25T09:01:56.026Z,98209.50
2022-09-25T09:04:32.054Z,98204.44
2022-09-25T09:07:28.118Z,98193.25
2022-09-25T09:10:11.030Z,98193.66
2022-09-25T09:12:44.841Z,98193.06
2022-09-25T09:15:27.631Z,98195.00
2022-09-25T09:17:57.989Z,98186.34
2022-09-25T09:20:33.227Z,98187.44
2022-09-25T09:23:00.886Z,98190.34
2022-09-25T09:28:14.957Z,98198.53
2022-09-25T09:31:01.093Z,98187.47
2022-09-25T09:33:34.370Z,98201.53
2022-09-25T09:36:26.382Z,98198.22
2022-09-25T09:39:15.969Z,98182.44
2022-09-25T09:41:50.164Z,98186.91
2022-09-25T09:44:51.334Z,98177.28
2022-09-25T09:47:45.454Z,98171.25
2022-09-25T09:50:43.231Z,98175.84
2022-09-25T09:53:24.097Z,98173.34
2022-09-25T09:55:54.287Z,98173.34
2022-09-25T09:58:33.658Z,98176.09
2022-09-25T10:01:15.984Z,98179.97
2022-09-25T10:03:49.862Z,98188.63
2022-09-25T10:06:22.427Z,98184.31
2022-09-25T10:08:49.467Z,98176.88
2022-09-25T10:11:18.348Z,98175.31
2022-09-25T10:13:46.169Z,98177.31
2022-09-25T10:16:16.416Z,98185.25
2022-09-25T10:19:07.262Z,98189.72
2022-09-25T10:21:42.274Z,98182.03
2022-09-25T10:24:08.956Z,98172.25
2022-09-25T10:26:39.855Z,98165.31
2022-09-25T10:29:21.665Z,98166.16
2022-09-25T10:31:56.839Z,98166.28
2022-09-25T10:34:24.275Z,98161.94
2022-09-25T10:36:53.125Z,98171.66
2022-09-25T10:39:46.675Z,98176.88
2022-09-25T10:42:37.628Z,98169.50
2022-09-25T10:45:29.833Z,98168.41
2022-09-25T10:48:17.694Z,98161.44
2022-09-25T10:50:44.508Z,98167.31
2022-09-25T10:55:31.209Z,98170.44
2022-09-25T10:58:06.737Z,98157.06
2022-09-25T11:00:42.386Z,98166.81
2022-09-25T11:03:21.580Z,98169.31
2022-09-25T11:05:55.135Z,98168.22
2022-09-25T11:08:28.956Z,98148.28
2022-09-25T11:11:00.680Z,98155.59
2022-09-25T11:13:36.923Z,98148.38
2022-09-25T11:16:10.290Z,98152.56
2022-09-25T11:18:48.748Z,98143.53
2022-09-25T11:21:23.489Z,98139.06
2022-09-25T11:24:04.209Z,98147.72
2022-09-25T11:26:36.028Z,98154.69
2022-09-25T11:29:58.510Z,98159.72
2022-09-25T11:32:40.027Z,98157.06
2022-09-25T11:35:39.404Z,98151.53
2022-09-25T11:38:45.209Z,98145.28
2022-09-25T11:41:35.189Z,98139.00
2022-09-25T11:44:19.984Z,98136.22
2022-09-25T11:46:50.419Z,98141.38
2022-09-25T11:49:17.143Z,98139.47
2022-09-25T11:52:16.491Z,98136.66
2022-09-25T11:55:18.497Z,98126.09
2022-09-25T11:57:57.084Z,98117.16
2022-09-25T12:00:34.216Z,98124.16
2022-09-25T12:03:43.044Z,98116.06
2022-09-25T12:06:19.966Z,98114.25
2022-09-25T12:08:53.421Z,98114.97
2022-09-25T12:11:51.096Z,98110.53
2022-09-25T12:14:36.111Z,98104.38
2022-09-25T12:17:50.998Z,98101.59
2022-09-25T12:20:32.763Z,98088.34
2022-09-25T12:23:31.433Z,98082.94
2022-09-25T12:26:12.452Z,98084.47
2022-09-25T12:29:10.464Z,98078.31
2022-09-25T12:32:14.897Z,98072.06
2022-09-25T12:34:44.396Z,98061.47
2022-09-25T12:37:28.767Z,98052.25
2022-09-25T12:40:11.687Z,98072.78
2022-09-25T12:42:59.097Z,98061.31
2022-09-25T12:45:33.320Z,98064.56
2022-09-25T12:48:23.588Z,98069.75
2022-09-25T12:51:01.485Z,98057.72
2022-09-25T12:53:39.600Z,98058.91
2022-09-25T12:56:32.112Z,98077.31
2022-09-25T12:58:59.220Z,98078.16
2022-09-25T13:01:37.803Z,98068.13
2022-09-25T13:04:23.549Z,98066.31
2022-09-25T13:07:08.118Z,98051.66
2022-09-25T13:09:45.477Z,98053.91
2022-09-25T13:12:26.160Z,98060.88
2022-09-25T13:14:57.641Z,98054.88
2022-09-25T13:17:24.366Z,98054.75
2022-09-25T13:19:51.518Z,98051.13
2022-09-25T13:22:20.767Z,98058.13
2022-09-25T13:25:02.965Z,98053.63
2022-09-25T13:27:39.011Z,98053.50
2022-09-25T13:30:07.073Z,98057.81
2022-09-25T13:32:39.093Z,98053.38
2022-09-25T13:35:19.999Z,98058.69
2022-09-25T13:37:48.302Z,98060.22
2022-09-25T13:40:39.276Z,98058.41
2022-09-25T13:43:21.265Z,98047.66
2022-09-25T13:45:49.201Z,98052.72
2022-09-25T13:48:36.142Z,98053.44
2022-09-25T13:51:18.289Z,98049.78
2022-09-25T13:53:51.028Z,98052.41
2022-09-25T13:56:23.568Z,98056.75
2022-09-25T13:59:16.010Z,98050.50
2022-09-25T14:01:51.265Z,98044.47
2022-09-25T14:04:31.769Z,98049.78
2022-09-25T14:07:07.497Z,98048.13
2022-09-25T14:09:34.325Z,98051.59
2022-09-25T14:14:28.225Z,98045.59
2022-09-25T14:17:01.006Z,98036.81
2022-09-25T14:19:36.440Z,98039.47
2022-09-25T14:22:06.327Z,98029.81
2022-09-25T14:24:33.033Z,98035.94
2022-09-25T14:27:03.918Z,98040.44
2022-09-25T14:29:40.778Z,98029.97
2022-09-25T14:32:43.212Z,98039.03
2022-09-25T14:35:05.432Z,98033.72
2022-09-25T14:38:06.733Z,98028.00
2022-09-25T14:40:40.162Z,98027.72
2022-09-25T14:43:13.267Z,98021.59
2022-09-25T14:45:54.825Z,98019.91
2022-09-25T14:48:46.771Z,98032.19
2022-09-25T14:51:24.655Z,98022.56
2022-09-25T14:54:00.800Z,98019.91
2022-09-25T14:56:34.073Z,98020.72
2022-09-25T14:59:11.647Z,98018.94
2022-09-25T15:01:47.734Z,98017.13
2022-09-25T15:04:29.652Z,98018.94
2022-09-25T15:07:08.574Z,98025.78
2022-09-25T15:09:38.624Z,98026.34
2022-09-25T15:12:31.588Z,98021.72
2022-09-25T15:15:03.971Z,98014.75
2022-09-25T15:17:32.766Z,98009.44
2022-09-25T15:20:03.083Z,98011.28
2022-09-25T15:22:38.593Z,98001.66
2022-09-25T15:25:08.263Z,98004.44
2022-09-25T15:27:42.462Z,98006.38
2022-09-25T15:30:15.790Z,97988.50
2022-09-25T15:32:47.413Z,97960.00
2022-09-25T15:35:18.349Z,97987.25
2022-09-25T15:37:46.735Z,97984.59
2022-09-25T15:40:27.902Z,97977.66
2022-09-25T15:42:55.306Z,97983.91
2022-09-25T15:45:45.227Z,97987.25
2022-09-25T15:48:31.204Z,97994.38
2022-09-25T15:51:03.749Z,97989.06
2022-09-25T15:53:35.932Z,98000.50
2022-09-25T15:56:27.469Z,97993.56
2022-09-25T15:59:13.822Z,97983.34
2022-09-25T16:02:05.319Z,97993.41
2022-09-25T16:04:47.155Z,97988.94
2022-09-25T16:07:29.304Z,97984.59
2022-09-25T16:10:01.332Z,97980.16
2022-09-25T16:12:32.537Z,97980.16
2022-09-25T16:15:24.453Z,97961.19
2022-09-25T16:17:51.093Z,97965.94
2022-09-25T16:20:23.242Z,97969.41
2022-09-25T16:22:57.025Z,97964.13
2022-09-25T16:25:32.075Z,97972.88
2022-09-25T16:28:15.947Z,97970.25
2022-09-25T16:30:58.857Z,97964.94
2022-09-25T16:33:28.776Z,97969.41
2022-09-25T16:36:12.876Z,97957.00
2022-09-25T16:38:42.743Z,97928.88
2022-09-25T16:41:12.046Z,97973.75
2022-09-25T16:43:39.669Z,97971.09
2022-09-25T16:46:22.092Z,97971.09
2022-09-25T16:49:01.862Z,97979.06
2022-09-25T16:51:32.905Z,97971.34
2022-09-25T16:54:03.624Z,97979.06
2022-09-25T16:56:31.914Z,97979.06
2022-09-25T16:58:59.251Z,97979.88
2022-09-25T17:03:52.497Z,97979.88
2022-09-25T17:06:20.555Z,97982.53
2022-09-25T17:08:49.213Z,97982.53
2022-09-25T17:11:18.119Z,97983.78
2022-09-25T17:13:45.736Z,97988.69
2022-09-25T17:16:12.499Z,97990.38
2022-09-25T17:18:39.537Z,97944.91
2022-09-25T17:21:13.454Z,97982.41
2022-09-25T17:23:40.044Z,97986.84
2022-09-25T17:26:18.452Z,97985.88
2022-09-25T17:28:45.132Z,97993.00
2022-09-25T17:31:14.808Z,97987.72
2022-09-25T17:33:41.544Z,97992.16
2022-09-25T17:36:11.351Z,97990.38
2022-09-25T17:38:38.191Z,97983.25
2022-09-25T17:41:32.633Z,97989.34
2022-09-25T17:43:59.734Z,97974.00
2022-09-25T17:48:40.894Z,97978.75
2022-09-25T17:53:22.009Z,97977.94
2022-09-25T17:55:53.374Z,97981.56
2022-09-25T17:58:22.254Z,97979.75
2022-09-25T18:00:51.285Z,97977.22
2022-09-25T18:03:18.780Z,97980.59
2022-09-25T18:05:45.446Z,97967.34
2022-09-25T18:08:12.447Z,97961.63
2022-09-25T18:10:39.309Z,97972.50
2022-09-25T18:13:07.762Z,97927.09
2022-09-25T18:15:36.838Z,97966.38
2022-09-25T18:18:04.001Z,97953.66
2022-09-25T18:20:48.897Z,97962.75
2022-09-25T18:23:15.565Z,97965.41
2022-09-25T18:25:42.077Z,97971.66
2022-09-25T18:28:09.149Z,97964.53
2022-09-25T18:30:38.028Z,97974.31
2022-09-25T18:33:04.995Z,97973.34
2022-09-25T18:35:31.613Z,97961.31
2022-09-25T18:37:59.719Z,97970.69
2022-09-25T18:42:47.052Z,97970.69
2022-09-25T18:45:14.477Z,97965.41
2022-09-25T18:47:42.820Z,97969.84
2022-09-25T18:50:10.610Z,97970.69
2022-09-25T18:52:40.248Z,97964.84
2022-09-25T18:55:07.319Z,97982.13
2022-09-25T18:57:37.400Z,97970.69
2022-09-25T19:00:07.364Z,97979.47
2022-09-25T19:02:39.054Z,97969.84
2022-09-25T19:05:06.836Z,97984.78
2022-09-25T19:07:33.575Z,97983.09
2022-09-25T19:10:07.677Z,97976.00
2022-09-25T19:12:34.347Z,97981.31
2022-09-25T19:15:01.585Z,97976.81
2022-09-25T19:17:28.145Z,97970.69
2022-09-25T19:19:54.634Z,97972.34
2022-09-25T19:22:23.819Z,97971.53
2022-09-25T19:24:52.627Z,97976.97
2022-09-25T19:27:21.950Z,97980.28
2022-09-25T19:29:48.491Z,97966.22
2022-09-25T19:32:17.072Z,97966.22
2022-09-25T19:34:43.878Z,97966.22
2022-09-25T19:37:10.967Z,97972.34
2022-09-25T19:39:57.424Z,97962.59
2022-09-25T19:42:26.421Z,97960.94
2022-09-25T19:44:54.657Z,97960.94
2022-09-25T19:47:23.931Z,97967.19
2022-09-25T19:49:50.523Z,97970.56
2022-09-25T19:52:17.241Z,97966.06
2022-09-25T19:54:43.786Z,97965.25
2022-09-25T19:57:10.427Z,97966.22
2022-09-25T19:59:36.961Z,97969.69
2022-09-25T20:04:35.749Z,97965.25
2022-09-25T20:07:02.383Z,97965.41
2022-09-25T20:09:28.885Z,97962.75
2022-09-25T20:11:57.675Z,97966.22
2022-09-25T20:14:27.107Z,97959.09
2022-09-25T20:16:54.974Z,97962.59
2022-09-25T20:19:21.793Z,97955.78
2022-09-25T20:21:48.944Z,97945.84
2022-09-25T20:24:15.899Z,97948.50
2022-09-25T20:26:42.525Z,97937.91
2022-09-25T20:29:14.723Z,97936.09
2022-09-25T20:31:44.262Z,97942.38
2022-09-25T20:34:17.215Z,97931.91
2022-09-25T20:36:44.161Z,97935.25
2022-09-25T20:39:11.004Z,97936.25
2022-09-25T20:41:38.248Z,97931.34
2022-09-25T20:44:05.379Z,97930.81
2022-09-25T20:46:33.173Z,97940.56
2022-09-25T20:49:00.550Z,97921.72
2022-09-25T20:51:29.809Z,97940.56
2022-09-25T20:54:07.433Z,97934.44
2022-09-25T20:56:36.364Z,97936.09
2022-09-25T20:59:04.337Z,97927.31
2022-09-25T21:01:34.689Z,97919.34
2022-09-25T21:04:03.527Z,97924.66
2022-09-25T21:06:32.727Z,97916.69
2022-09-25T21:09:01.143Z,97922.16
2022-09-25T21:11:30.114Z,97905.56
2022-09-25T21:13:59.481Z,97912.41
2022-09-25T21:16:28.090Z,97910.56
2022-09-25T21:19:04.562Z,97899.69
2022-09-25T21:21:33.129Z,97912.41
2022-09-25T21:24:02.450Z,97903.88
2022-09-25T21:26:30.717Z,97914.19
2022-09-25T21:28:59.252Z,97908.06
2022-09-25T21:31:34.639Z,97912.50
2022-09-25T21:34:01.868Z,97907.22
2022-09-25T21:36:29.172Z,97906.38
2022-09-25T21:38:56.117Z,97907.50
2022-09-25T21:41:25.223Z,97907.34
2022-09-25T21:43:59.711Z,97909.19
2022-09-25T21:46:27.342Z,97910.00
2022-09-25T21:48:59.263Z,97902.06
2022-09-25T21:51:31.964Z,97871.06
2022-09-25T21:54:00.908Z,97895.22
2022-09-25T21:56:30.679Z,97909.19
2022-09-25T22:01:27.820Z,97897.31
2022-09-25T22:03:56.800Z,97901.66
2022-09-25T22:06:29.081Z,97896.50
2022-09-25T22:08:58.554Z,97892.16
2022-09-25T22:11:26.290Z,97895.94
2022-09-25T22:13:53.548Z,97880.59
2022-09-25T22:16:29.930Z,97895.38
2022-09-25T22:19:27.324Z,97895.38
2022-09-25T22:21:58.837Z,97890.06
2022-09-25T22:24:26.392Z,97895.38
2022-09-25T22:26:55.398Z,97889.22
2022-09-25T22:29:22.948Z,97879.16
2022-09-25T22:31:50.458Z,97876.25
2022-09-25T22:34:20.995Z,97876.81
2022-09-25T22:36:48.701Z,97882.13
2022-09-25T22:39:18.100Z,97871.09
2022-09-25T22:41:45.795Z,97879.63
2022-09-25T22:44:12.403Z,97877.09
2022-09-25T22:46:39.301Z,97872.66
2022-09-25T22:49:06.252Z,97882.38
2022-09-25T22:51:32.965Z,97841.19
2022-09-25T22:53:59.469Z,97874.44
2022-09-25T22:56:36.849Z,97864.81
2022-09-25T23:01:26.194Z,97867.47
2022-09-25T23:03:58.381Z,97867.59
2022-09-25T23:06:25.476Z,97871.94
2022-09-25T23:08:57.792Z,97869.28
2022-09-25T23:11:25.497Z,97863.16
2022-09-25T23:14:06.853Z,97857.97
2022-09-25T23:16:34.701Z,97857.97
2022-09-25T23:19:02.098Z,97858.97
2022-09-25T23:21:30.316Z,97857.16
2022-09-25T23:24:02.486Z,97852.81
2022-09-25T23:26:29.793Z,97844.88
2022-09-25T23:28:58.590Z,97844.88
2022-09-25T23:31:25.898Z,97848.50
2022-09-25T23:33:52.685Z,97852.97
2022-09-25T23:36:21.606Z,97850.31
2022-09-25T23:38:49.780Z,97841.50
2022-09-25T23:41:17.468Z,97840.69
2022-09-25T23:43:45.228Z,97836.38
2022-09-25T23:46:13.099Z,97833.84
2022-09-25T23:48:39.776Z,97830.47
2022-09-25T23:51:06.861Z,97830.31
2022-09-25T23:53:34.059Z,97826.84
2022-09-25T23:56:15.852Z,97819.88
2022-09-25T23:58:43.544Z,97819.06
